sensor_id;sensor_type;location;lat;lon;timestamp;pressure;altitude;pressure_sealevel;temperature;humidity
61488;BME280;47351;53.326;-6.298;2022-12-18T00:01:01;101200.61;;;1.12;92.11
61488;BME280;47351;53.326;-6.298;2022-12-18T00:03:55;101200.16;;;1.08;92.25
61488;BME280;47351;53.326;-6.298;2022-12-18T00:06:46;101197.10;;;1.06;92.52
61488;BME280;47351;53.326;-6.298;2022-12-18T00:09:36;101192.74;;;1.05;92.80
61488;BME280;47351;53.326;-6.298;2022-12-18T00:12:28;101196.89;;;1.06;93.01
61488;BME280;47351;53.326;-6.298;2022-12-18T00:15:19;101192.50;;;1.06;93.03
61488;BME280;47351;53.326;-6.298;2022-12-18T00:18:10;101197.40;;;1.10;93.20
61488;BME280;47351;53.326;-6.298;2022-12-18T00:21:07;101202.63;;;1.20;93.81
61488;BME280;47351;53.326;-6.298;2022-12-18T00:23:58;101205.17;;;1.34;94.21
61488;BME280;47351;53.326;-6.298;2022-12-18T00:26:49;101198.95;;;1.48;94.40
61488;BME280;47351;53.326;-6.298;2022-12-18T00:29:40;101199.88;;;1.62;94.57
61488;BME280;47351;53.326;-6.298;2022-12-18T00:32:30;101204.40;;;1.75;94.82
61488;BME280;47351;53.326;-6.298;2022-12-18T00:35:21;101209.64;;;1.85;95.06
61488;BME280;47351;53.326;-6.298;2022-12-18T00:38:11;101208.21;;;1.92;94.83
61488;BME280;47351;53.326;-6.298;2022-12-18T00:41:02;101205.80;;;1.97;94.89
61488;BME280;47351;53.326;-6.298;2022-12-18T00:43:53;101199.51;;;2.02;94.69
61488;BME280;47351;53.326;-6.298;2022-12-18T00:46:43;101191.66;;;2.06;94.76
61488;BME280;47351;53.326;-6.298;2022-12-18T00:49:34;101188.26;;;2.13;94.83
61488;BME280;47351;53.326;-6.298;2022-12-18T00:52:25;101184.11;;;2.18;94.65
61488;BME280;47351;53.326;-6.298;2022-12-18T00:55:16;101175.79;;;2.21;94.58
61488;BME280;47351;53.326;-6.298;2022-12-18T00:58:08;101173.27;;;2.25;94.63
61488;BME280;47351;53.326;-6.298;2022-12-18T01:00:59;101170.52;;;2.27;94.33
61488;BME280;47351;53.326;-6.298;2022-12-18T01:03:50;101162.83;;;2.29;94.26
61488;BME280;47351;53.326;-6.298;2022-12-18T01:06:41;101162.00;;;2.31;94.26
61488;BME280;47351;53.326;-6.298;2022-12-18T01:09:32;101153.61;;;2.33;94.26
61488;BME280;47351;53.326;-6.298;2022-12-18T01:12:23;101151.60;;;2.34;94.26
61488;BME280;47351;53.326;-6.298;2022-12-18T01:15:14;101152.44;;;2.35;94.19
61488;BME280;47351;53.326;-6.298;2022-12-18T01:18:05;101146.20;;;2.37;94.31
61488;BME280;47351;53.326;-6.298;2022-12-18T01:20:56;101143.09;;;2.38;94.39
61488;BME280;47351;53.326;-6.298;2022-12-18T01:23:50;101142.56;;;2.41;94.46
61488;BME280;47351;53.326;-6.298;2022-12-18T01:26:41;101132.60;;;2.45;94.84
61488;BME280;47351;53.326;-6.298;2022-12-18T01:29:31;101132.75;;;2.57;95.69
61488;BME280;47351;53.326;-6.298;2022-12-18T01:32:22;101134.14;;;2.68;95.79
61488;BME280;47351;53.326;-6.298;2022-12-18T01:35:13;101124.80;;;2.79;95.96
61488;BME280;47351;53.326;-6.298;2022-12-18T01:38:03;101118.71;;;2.92;95.98
61488;BME280;47351;53.326;-6.298;2022-12-18T01:40:57;101115.73;;;3.02;96.05
61488;BME280;47351;53.326;-6.298;2022-12-18T01:43:50;101107.95;;;3.19;96.29
61488;BME280;47351;53.326;-6.298;2022-12-18T01:46:41;101095.17;;;3.31;95.75
61488;BME280;47351;53.326;-6.298;2022-12-18T01:49:32;101086.11;;;3.37;95.25
61488;BME280;47351;53.326;-6.298;2022-12-18T01:52:22;101073.88;;;3.40;94.95
61488;BME280;47351;53.326;-6.298;2022-12-18T01:55:16;101067.59;;;3.42;94.74
61488;BME280;47351;53.326;-6.298;2022-12-18T01:58:07;101070.45;;;3.44;94.64
61488;BME280;47351;53.326;-6.298;2022-12-18T02:00:58;101056.72;;;3.46;94.47
61488;BME280;47351;53.326;-6.298;2022-12-18T02:03:49;101038.76;;;3.48;94.31
61488;BME280;47351;53.326;-6.298;2022-12-18T02:06:40;101028.33;;;3.51;94.27
61488;BME280;47351;53.326;-6.298;2022-12-18T02:09:33;101022.69;;;3.56;94.32
61488;BME280;47351;53.326;-6.298;2022-12-18T02:12:27;101022.12;;;3.62;94.11
61488;BME280;47351;53.326;-6.298;2022-12-18T02:15:23;101027.38;;;3.65;93.83
61488;BME280;47351;53.326;-6.298;2022-12-18T02:18:15;101032.20;;;3.66;93.68
61488;BME280;47351;53.326;-6.298;2022-12-18T02:21:11;101029.05;;;3.66;93.51
61488;BME280;47351;53.326;-6.298;2022-12-18T02:24:07;101032.20;;;3.67;93.20
61488;BME280;47351;53.326;-6.298;2022-12-18T02:27:04;101031.49;;;3.69;92.89
61488;BME280;47351;53.326;-6.298;2022-12-18T02:29:55;101029.02;;;3.80;92.66
61488;BME280;47351;53.326;-6.298;2022-12-18T02:32:50;101025.56;;;3.91;92.16
61488;BME280;47351;53.326;-6.298;2022-12-18T02:35:42;101019.10;;;3.95;91.41
61488;BME280;47351;53.326;-6.298;2022-12-18T02:38:35;101008.58;;;3.97;91.07
61488;BME280;47351;53.326;-6.298;2022-12-18T02:41:31;101007.53;;;3.99;90.86
61488;BME280;47351;53.326;-6.298;2022-12-18T02:44:22;101008.07;;;4.01;90.58
61488;BME280;47351;53.326;-6.298;2022-12-18T02:47:13;101012.13;;;4.04;90.47
61488;BME280;47351;53.326;-6.298;2022-12-18T02:50:07;101016.70;;;4.06;90.43
61488;BME280;47351;53.326;-6.298;2022-12-18T02:53:03;101010.08;;;4.08;90.51
61488;BME280;47351;53.326;-6.298;2022-12-18T02:55:58;101003.90;;;4.10;90.70
61488;BME280;47351;53.326;-6.298;2022-12-18T02:58:55;100993.13;;;4.12;90.96
61488;BME280;47351;53.326;-6.298;2022-12-18T03:02:05;100976.23;;;4.14;91.08
61488;BME280;47351;53.326;-6.298;2022-12-18T03:05:00;100973.42;;;4.16;91.28
61488;BME280;47351;53.326;-6.298;2022-12-18T03:07:53;100972.79;;;4.18;91.58
61488;BME280;47351;53.326;-6.298;2022-12-18T03:10:49;100966.98;;;4.23;92.10
61488;BME280;47351;53.326;-6.298;2022-12-18T03:13:43;100953.32;;;4.26;92.09
61488;BME280;47351;53.326;-6.298;2022-12-18T03:16:35;100939.39;;;4.28;92.33
61488;BME280;47351;53.326;-6.298;2022-12-18T03:19:27;100933.27;;;4.32;92.53
61488;BME280;47351;53.326;-6.298;2022-12-18T03:22:20;100916.98;;;4.35;92.59
61488;BME280;47351;53.326;-6.298;2022-12-18T03:25:13;100911.71;;;4.36;92.50
61488;BME280;47351;53.326;-6.298;2022-12-18T03:28:06;100903.24;;;4.41;92.66
61488;BME280;47351;53.326;-6.298;2022-12-18T03:31:00;100889.38;;;4.47;92.48
61488;BME280;47351;53.326;-6.298;2022-12-18T03:33:53;100884.69;;;4.51;92.18
61488;BME280;47351;53.326;-6.298;2022-12-18T03:36:48;100889.10;;;4.56;91.97
61488;BME280;47351;53.326;-6.298;2022-12-18T03:39:40;100885.09;;;4.59;91.65
61488;BME280;47351;53.326;-6.298;2022-12-18T03:42:32;100889.33;;;4.62;91.41
61488;BME280;47351;53.326;-6.298;2022-12-18T03:45:32;100902.48;;;4.63;91.17
61488;BME280;47351;53.326;-6.298;2022-12-18T03:48:26;100896.68;;;4.63;90.93
61488;BME280;47351;53.326;-6.298;2022-12-18T03:51:23;100892.51;;;4.62;90.82
61488;BME280;47351;53.326;-6.298;2022-12-18T03:54:15;100906.08;;;4.62;90.63
61488;BME280;47351;53.326;-6.298;2022-12-18T03:57:13;100903.89;;;4.63;90.52
61488;BME280;47351;53.326;-6.298;2022-12-18T04:00:05;100895.73;;;4.63;90.46
61488;BME280;47351;53.326;-6.298;2022-12-18T04:03:15;100884.52;;;4.64;90.45
61488;BME280;47351;53.326;-6.298;2022-12-18T04:06:13;100866.21;;;4.66;90.30
61488;BME280;47351;53.326;-6.298;2022-12-18T04:09:05;100865.11;;;4.69;90.35
61488;BME280;47351;53.326;-6.298;2022-12-18T04:11:58;100866.16;;;4.72;90.25
61488;BME280;47351;53.326;-6.298;2022-12-18T04:14:49;100873.30;;;4.73;90.20
61488;BME280;47351;53.326;-6.298;2022-12-18T04:17:46;100868.85;;;4.73;90.26
61488;BME280;47351;53.326;-6.298;2022-12-18T04:20:38;100867.96;;;4.73;90.24
61488;BME280;47351;53.326;-6.298;2022-12-18T04:23:29;100860.84;;;4.74;90.41
61488;BME280;47351;53.326;-6.298;2022-12-18T04:26:20;100849.17;;;4.76;90.45
61488;BME280;47351;53.326;-6.298;2022-12-18T04:29:33;100848.45;;;4.79;90.43
61488;BME280;47351;53.326;-6.298;2022-12-18T04:32:23;100832.63;;;4.82;90.53
61488;BME280;47351;53.326;-6.298;2022-12-18T04:35:14;100825.06;;;4.86;90.64
61488;BME280;47351;53.326;-6.298;2022-12-18T04:38:05;100810.21;;;4.88;90.51
61488;BME280;47351;53.326;-6.298;2022-12-18T04:40:55;100802.92;;;4.89;90.45
61488;BME280;47351;53.326;-6.298;2022-12-18T04:43:47;100804.36;;;4.91;90.49
61488;BME280;47351;53.326;-6.298;2022-12-18T04:46:38;100797.77;;;4.91;90.57
61488;BME280;47351;53.326;-6.298;2022-12-18T04:49:28;100794.90;;;4.92;90.60
61488;BME280;47351;53.326;-6.298;2022-12-18T04:52:19;100790.48;;;4.92;90.72
61488;BME280;47351;53.326;-6.298;2022-12-18T04:55:13;100788.88;;;4.92;90.69
61488;BME280;47351;53.326;-6.298;2022-12-18T04:58:04;100778.86;;;4.91;90.73
61488;BME280;47351;53.326;-6.298;2022-12-18T05:00:54;100773.93;;;4.91;90.75
61488;BME280;47351;53.326;-6.298;2022-12-18T05:03:45;100768.38;;;4.90;90.74
61488;BME280;47351;53.326;-6.298;2022-12-18T05:06:36;100760.35;;;4.88;90.75
61488;BME280;47351;53.326;-6.298;2022-12-18T05:09:26;100744.66;;;4.87;90.79
61488;BME280;47351;53.326;-6.298;2022-12-18T05:12:17;100743.92;;;4.88;90.81
61488;BME280;47351;53.326;-6.298;2022-12-18T05:15:08;100736.30;;;4.88;90.90
61488;BME280;47351;53.326;-6.298;2022-12-18T05:17:59;100726.00;;;4.89;91.00
61488;BME280;47351;53.326;-6.298;2022-12-18T05:20:50;100704.11;;;4.90;91.11
61488;BME280;47351;53.326;-6.298;2022-12-18T05:23:40;100698.26;;;4.93;91.36
61488;BME280;47351;53.326;-6.298;2022-12-18T05:26:32;100692.66;;;4.97;91.58
61488;BME280;47351;53.326;-6.298;2022-12-18T05:29:22;100689.20;;;5.00;91.70
61488;BME280;47351;53.326;-6.298;2022-12-18T05:32:13;100691.33;;;5.02;91.67
61488;BME280;47351;53.326;-6.298;2022-12-18T05:35:04;100674.80;;;5.03;91.76
61488;BME280;47351;53.326;-6.298;2022-12-18T05:37:54;100659.66;;;5.04;91.89
61488;BME280;47351;53.326;-6.298;2022-12-18T05:40:46;100659.54;;;5.04;91.99
61488;BME280;47351;53.326;-6.298;2022-12-18T05:43:37;100652.48;;;5.01;91.93
61488;BME280;47351;53.326;-6.298;2022-12-18T05:46:29;100650.19;;;4.99;92.15
61488;BME280;47351;53.326;-6.298;2022-12-18T05:49:20;100649.09;;;4.97;92.26
61488;BME280;47351;53.326;-6.298;2022-12-18T05:52:10;100636.11;;;4.94;92.34
61488;BME280;47351;53.326;-6.298;2022-12-18T05:55:01;100644.34;;;4.90;92.52
61488;BME280;47351;53.326;-6.298;2022-12-18T05:57:51;100649.25;;;4.86;92.66
61488;BME280;47351;53.326;-6.298;2022-12-18T06:00:43;100651.44;;;4.83;92.72
61488;BME280;47351;53.326;-6.298;2022-12-18T06:03:34;100653.98;;;4.81;92.69
61488;BME280;47351;53.326;-6.298;2022-12-18T06:06:25;100654.45;;;4.79;92.90
61488;BME280;47351;53.326;-6.298;2022-12-18T06:09:16;100649.61;;;4.78;92.98
61488;BME280;47351;53.326;-6.298;2022-12-18T06:12:07;100646.52;;;4.77;93.23
61488;BME280;47351;53.326;-6.298;2022-12-18T06:14:57;100635.73;;;4.77;93.33
61488;BME280;47351;53.326;-6.298;2022-12-18T06:17:48;100621.84;;;4.76;93.46
61488;BME280;47351;53.326;-6.298;2022-12-18T06:20:38;100618.30;;;4.74;93.43
61488;BME280;47351;53.326;-6.298;2022-12-18T06:23:30;100612.08;;;4.72;93.48
61488;BME280;47351;53.326;-6.298;2022-12-18T06:26:21;100610.96;;;4.70;93.72
61488;BME280;47351;53.326;-6.298;2022-12-18T06:29:16;100603.48;;;4.69;93.72
61488;BME280;47351;53.326;-6.298;2022-12-18T06:32:07;100604.42;;;4.68;93.68
61488;BME280;47351;53.326;-6.298;2022-12-18T06:34:58;100594.79;;;4.67;93.75
61488;BME280;47351;53.326;-6.298;2022-12-18T06:37:48;100594.52;;;4.66;93.78
61488;BME280;47351;53.326;-6.298;2022-12-18T06:40:39;100589.64;;;4.64;93.59
61488;BME280;47351;53.326;-6.298;2022-12-18T06:43:29;100573.16;;;4.63;93.51
61488;BME280;47351;53.326;-6.298;2022-12-18T06:46:20;100553.02;;;4.61;93.49
61488;BME280;47351;53.326;-6.298;2022-12-18T06:49:11;100547.70;;;4.59;93.42
61488;BME280;47351;53.326;-6.298;2022-12-18T06:52:01;100550.02;;;4.56;93.33
61488;BME280;47351;53.326;-6.298;2022-12-18T06:54:52;100556.48;;;4.53;93.17
61488;BME280;47351;53.326;-6.298;2022-12-18T06:57:42;100548.86;;;4.51;92.93
61488;BME280;47351;53.326;-6.298;2022-12-18T07:00:33;100543.81;;;4.48;92.73
61488;BME280;47351;53.326;-6.298;2022-12-18T07:03:23;100547.05;;;4.43;92.57
61488;BME280;47351;53.326;-6.298;2022-12-18T07:06:14;100540.23;;;4.37;92.48
61488;BME280;47351;53.326;-6.298;2022-12-18T07:09:05;100536.84;;;4.31;92.15
61488;BME280;47351;53.326;-6.298;2022-12-18T07:11:56;100537.23;;;4.24;91.83
61488;BME280;47351;53.326;-6.298;2022-12-18T07:14:47;100524.20;;;4.19;91.72
61488;BME280;47351;53.326;-6.298;2022-12-18T07:17:37;100506.29;;;4.15;91.74
61488;BME280;47351;53.326;-6.298;2022-12-18T07:20:28;100504.37;;;4.13;91.75
61488;BME280;47351;53.326;-6.298;2022-12-18T07:23:18;100500.35;;;4.10;91.56
61488;BME280;47351;53.326;-6.298;2022-12-18T07:26:09;100484.04;;;4.08;91.56
61488;BME280;47351;53.326;-6.298;2022-12-18T07:29:00;100472.41;;;4.08;91.53
61488;BME280;47351;53.326;-6.298;2022-12-18T07:31:51;100464.20;;;4.07;91.39
61488;BME280;47351;53.326;-6.298;2022-12-18T07:34:41;100461.52;;;4.05;91.20
61488;BME280;47351;53.326;-6.298;2022-12-18T07:37:32;100454.00;;;4.02;90.99
61488;BME280;47351;53.326;-6.298;2022-12-18T07:40:23;100448.30;;;4.01;90.99
61488;BME280;47351;53.326;-6.298;2022-12-18T07:43:13;100442.51;;;4.00;91.00
61488;BME280;47351;53.326;-6.298;2022-12-18T07:46:06;100426.45;;;4.00;91.17
61488;BME280;47351;53.326;-6.298;2022-12-18T07:48:57;100412.83;;;4.03;91.25
61488;BME280;47351;53.326;-6.298;2022-12-18T07:51:48;100407.19;;;4.05;91.29
61488;BME280;47351;53.326;-6.298;2022-12-18T07:54:38;100386.27;;;4.08;91.32
61488;BME280;47351;53.326;-6.298;2022-12-18T07:57:29;100383.87;;;4.11;91.32
61488;BME280;47351;53.326;-6.298;2022-12-18T08:00:39;100373.14;;;4.15;91.30
61488;BME280;47351;53.326;-6.298;2022-12-18T08:03:29;100367.11;;;4.17;91.37
61488;BME280;47351;53.326;-6.298;2022-12-18T08:06:20;100355.80;;;4.17;91.52
61488;BME280;47351;53.326;-6.298;2022-12-18T08:09:12;100341.33;;;4.17;91.69
61488;BME280;47351;53.326;-6.298;2022-12-18T08:12:03;100332.64;;;4.18;91.76
61488;BME280;47351;53.326;-6.298;2022-12-18T08:14:54;100325.09;;;4.20;91.91
61488;BME280;47351;53.326;-6.298;2022-12-18T08:17:44;100321.86;;;4.21;92.13
61488;BME280;47351;53.326;-6.298;2022-12-18T08:20:35;100314.16;;;4.22;92.21
61488;BME280;47351;53.326;-6.298;2022-12-18T08:23:25;100305.00;;;4.24;92.36
61488;BME280;47351;53.326;-6.298;2022-12-18T08:26:17;100301.86;;;4.25;92.49
61488;BME280;47351;53.326;-6.298;2022-12-18T08:29:09;100302.85;;;4.26;92.68
61488;BME280;47351;53.326;-6.298;2022-12-18T08:32:03;100295.63;;;4.26;92.73
61488;BME280;47351;53.326;-6.298;2022-12-18T08:34:54;100280.63;;;4.26;92.80
61488;BME280;47351;53.326;-6.298;2022-12-18T08:37:45;100267.77;;;4.25;92.96
61488;BME280;47351;53.326;-6.298;2022-12-18T08:40:35;100262.02;;;4.24;93.15
61488;BME280;47351;53.326;-6.298;2022-12-18T08:43:25;100247.15;;;4.22;93.26
61488;BME280;47351;53.326;-6.298;2022-12-18T08:46:34;100234.66;;;4.22;93.50
61488;BME280;47351;53.326;-6.298;2022-12-18T08:49:25;100225.47;;;4.22;93.58
61488;BME280;47351;53.326;-6.298;2022-12-18T08:52:16;100217.52;;;4.24;93.74
61488;BME280;47351;53.326;-6.298;2022-12-18T08:55:08;100205.09;;;4.27;94.12
61488;BME280;47351;53.326;-6.298;2022-12-18T08:57:58;100199.41;;;4.31;94.28
61488;BME280;47351;53.326;-6.298;2022-12-18T09:00:49;100206.67;;;4.35;94.38
61488;BME280;47351;53.326;-6.298;2022-12-18T09:03:39;100205.47;;;4.39;94.44
61488;BME280;47351;53.326;-6.298;2022-12-18T09:06:30;100198.96;;;4.43;94.63
61488;BME280;47351;53.326;-6.298;2022-12-18T09:09:21;100190.84;;;4.47;94.93
61488;BME280;47351;53.326;-6.298;2022-12-18T09:12:12;100188.17;;;4.49;94.90
61488;BME280;47351;53.326;-6.298;2022-12-18T09:15:02;100189.75;;;4.51;94.95
61488;BME280;47351;53.326;-6.298;2022-12-18T09:17:53;100180.45;;;4.52;95.07
61488;BME280;47351;53.326;-6.298;2022-12-18T09:20:44;100177.02;;;4.53;95.14
61488;BME280;47351;53.326;-6.298;2022-12-18T09:23:34;100178.88;;;4.56;95.08
61488;BME280;47351;53.326;-6.298;2022-12-18T09:26:25;100169.05;;;4.59;95.17
61488;BME280;47351;53.326;-6.298;2022-12-18T09:29:16;100156.00;;;4.63;95.36
61488;BME280;47351;53.326;-6.298;2022-12-18T09:32:07;100144.86;;;4.67;95.60
61488;BME280;47351;53.326;-6.298;2022-12-18T09:34:57;100133.77;;;4.71;95.57
61488;BME280;47351;53.326;-6.298;2022-12-18T09:37:48;100124.00;;;4.75;95.65
61488;BME280;47351;53.326;-6.298;2022-12-18T09:40:41;100110.66;;;4.80;95.65
61488;BME280;47351;53.326;-6.298;2022-12-18T09:43:35;100108.00;;;4.84;95.62
61488;BME280;47351;53.326;-6.298;2022-12-18T09:46:28;100094.25;;;4.90;95.58
61488;BME280;47351;53.326;-6.298;2022-12-18T09:49:23;100095.33;;;4.92;95.43
61488;BME280;47351;53.326;-6.298;2022-12-18T09:52:16;100087.81;;;4.93;95.37
61488;BME280;47351;53.326;-6.298;2022-12-18T09:55:22;100086.39;;;4.95;95.32
61488;BME280;47351;53.326;-6.298;2022-12-18T09:58:20;100081.09;;;4.99;95.37
61488;BME280;47351;53.326;-6.298;2022-12-18T10:01:17;100081.49;;;5.04;95.41
61488;BME280;47351;53.326;-6.298;2022-12-18T10:04:09;100074.45;;;5.09;95.31
61488;BME280;47351;53.326;-6.298;2022-12-18T10:07:00;100070.96;;;5.13;95.28
61488;BME280;47351;53.326;-6.298;2022-12-18T10:09:58;100068.37;;;5.20;95.39
61488;BME280;47351;53.326;-6.298;2022-12-18T10:12:54;100068.31;;;5.26;95.36
61488;BME280;47351;53.326;-6.298;2022-12-18T10:15:57;100069.27;;;5.30;95.27
61488;BME280;47351;53.326;-6.298;2022-12-18T10:18:55;100068.54;;;5.32;95.33
61488;BME280;47351;53.326;-6.298;2022-12-18T10:21:51;100064.91;;;5.31;95.28
61488;BME280;47351;53.326;-6.298;2022-12-18T10:24:44;100069.20;;;5.30;95.30
61488;BME280;47351;53.326;-6.298;2022-12-18T10:27:38;100067.29;;;5.30;95.41
61488;BME280;47351;53.326;-6.298;2022-12-18T10:30:29;100066.42;;;5.28;95.41
61488;BME280;47351;53.326;-6.298;2022-12-18T10:33:20;100063.70;;;5.27;95.46
61488;BME280;47351;53.326;-6.298;2022-12-18T10:36:11;100074.13;;;5.27;95.51
61488;BME280;47351;53.326;-6.298;2022-12-18T10:39:09;100069.99;;;5.27;95.78
61488;BME280;47351;53.326;-6.298;2022-12-18T10:42:11;100054.63;;;5.29;95.91
61488;BME280;47351;53.326;-6.298;2022-12-18T10:45:09;100057.21;;;5.30;96.05
61488;BME280;47351;53.326;-6.298;2022-12-18T10:47:59;100051.61;;;5.31;96.23
61488;BME280;47351;53.326;-6.298;2022-12-18T10:50:50;100046.08;;;5.33;96.35
61488;BME280;47351;53.326;-6.298;2022-12-18T10:54:01;100038.70;;;5.35;96.57
61488;BME280;47351;53.326;-6.298;2022-12-18T10:56:54;100027.89;;;5.35;96.74
61488;BME280;47351;53.326;-6.298;2022-12-18T11:00:27;100035.70;;;5.35;96.92
61488;BME280;47351;53.326;-6.298;2022-12-18T11:03:31;100033.81;;;5.34;97.24
61488;BME280;47351;53.326;-6.298;2022-12-18T11:06:24;100032.09;;;5.34;97.59
61488;BME280;47351;53.326;-6.298;2022-12-18T11:09:20;100032.19;;;5.34;97.75
61488;BME280;47351;53.326;-6.298;2022-12-18T11:12:16;100025.01;;;5.36;97.88
61488;BME280;47351;53.326;-6.298;2022-12-18T11:15:15;100006.15;;;5.39;98.33
61488;BME280;47351;53.326;-6.298;2022-12-18T11:18:14;99992.56;;;5.42;98.48
61488;BME280;47351;53.326;-6.298;2022-12-18T11:21:07;99983.11;;;5.47;98.69
61488;BME280;47351;53.326;-6.298;2022-12-18T11:23:59;99976.01;;;5.51;98.76
61488;BME280;47351;53.326;-6.298;2022-12-18T11:26:49;99966.52;;;5.55;98.72
61488;BME280;47351;53.326;-6.298;2022-12-18T11:29:47;99952.66;;;5.60;98.87
61488;BME280;47351;53.326;-6.298;2022-12-18T11:32:39;99945.33;;;5.65;99.15
61488;BME280;47351;53.326;-6.298;2022-12-18T11:35:41;99939.86;;;5.68;99.12
61488;BME280;47351;53.326;-6.298;2022-12-18T11:38:33;99930.61;;;5.70;99.26
61488;BME280;47351;53.326;-6.298;2022-12-18T11:41:27;99917.15;;;5.72;99.41
61488;BME280;47351;53.326;-6.298;2022-12-18T11:44:35;99905.45;;;5.76;99.49
61488;BME280;47351;53.326;-6.298;2022-12-18T11:47:29;99894.92;;;5.82;99.43
61488;BME280;47351;53.326;-6.298;2022-12-18T11:50:24;99893.41;;;5.93;99.37
61488;BME280;47351;53.326;-6.298;2022-12-18T11:53:16;99886.97;;;6.06;99.19
61488;BME280;47351;53.326;-6.298;2022-12-18T11:56:25;99867.78;;;6.27;98.96
61488;BME280;47351;53.326;-6.298;2022-12-18T11:59:19;99856.67;;;6.55;98.61
61488;BME280;47351;53.326;-6.298;2022-12-18T12:02:17;99850.08;;;6.87;98.01
61488;BME280;47351;53.326;-6.298;2022-12-18T12:05:18;99842.65;;;7.16;97.26
61488;BME280;47351;53.326;-6.298;2022-12-18T12:08:12;99832.36;;;7.39;96.65
61488;BME280;47351;53.326;-6.298;2022-12-18T12:11:07;99823.22;;;7.57;96.02
61488;BME280;47351;53.326;-6.298;2022-12-18T12:14:06;99821.13;;;7.70;95.34
61488;BME280;47351;53.326;-6.298;2022-12-18T12:17:01;99811.01;;;7.81;94.90
61488;BME280;47351;53.326;-6.298;2022-12-18T12:19:56;99797.02;;;7.95;94.81
61488;BME280;47351;53.326;-6.298;2022-12-18T12:22:53;99787.84;;;8.04;94.22
61488;BME280;47351;53.326;-6.298;2022-12-18T12:25:48;99787.30;;;8.07;93.96
61488;BME280;47351;53.326;-6.298;2022-12-18T12:28:50;99781.95;;;8.19;93.99
61488;BME280;47351;53.326;-6.298;2022-12-18T12:34:55;99762.36;;;8.37;93.66
61488;BME280;47351;53.326;-6.298;2022-12-18T12:37:59;99758.35;;;8.40;93.60
61488;BME280;47351;53.326;-6.298;2022-12-18T12:40:53;99752.42;;;8.50;93.43
61488;BME280;47351;53.326;-6.298;2022-12-18T12:43:51;99737.92;;;8.64;93.08
61488;BME280;47351;53.326;-6.298;2022-12-18T12:46:44;99716.38;;;8.75;92.86
61488;BME280;47351;53.326;-6.298;2022-12-18T12:49:35;99708.21;;;8.85;92.50
61488;BME280;47351;53.326;-6.298;2022-12-18T12:52:30;99701.70;;;8.95;92.20
61488;BME280;47351;53.326;-6.298;2022-12-18T12:55:23;99693.70;;;9.03;91.66
61488;BME280;47351;53.326;-6.298;2022-12-18T12:58:16;99682.55;;;9.09;91.59
61488;BME280;47351;53.326;-6.298;2022-12-18T13:01:12;99681.92;;;9.15;91.39
61488;BME280;47351;53.326;-6.298;2022-12-18T13:04:15;99661.96;;;9.15;91.07
61488;BME280;47351;53.326;-6.298;2022-12-18T13:07:12;99655.34;;;9.12;91.09
61488;BME280;47351;53.326;-6.298;2022-12-18T13:10:22;99653.34;;;9.09;90.98
61488;BME280;47351;53.326;-6.298;2022-12-18T13:13:15;99641.70;;;9.06;91.19
61488;BME280;47351;53.326;-6.298;2022-12-18T13:16:12;99631.67;;;9.04;90.97
61488;BME280;47351;53.326;-6.298;2022-12-18T13:19:03;99616.73;;;9.04;91.20
61488;BME280;47351;53.326;-6.298;2022-12-18T13:21:55;99609.00;;;9.06;91.28
61488;BME280;47351;53.326;-6.298;2022-12-18T13:24:46;99613.23;;;9.07;91.25
61488;BME280;47351;53.326;-6.298;2022-12-18T13:27:51;99604.73;;;9.06;91.32
61488;BME280;47351;53.326;-6.298;2022-12-18T13:30:51;99602.85;;;9.09;91.53
61488;BME280;47351;53.326;-6.298;2022-12-18T13:34:11;99588.03;;;9.14;91.65
61488;BME280;47351;53.326;-6.298;2022-12-18T13:37:44;99576.71;;;9.21;91.80
61488;BME280;47351;53.326;-6.298;2022-12-18T13:43:46;99568.20;;;9.42;91.56
61488;BME280;47351;53.326;-6.298;2022-12-18T13:46:43;99557.73;;;9.49;91.48
61488;BME280;47351;53.326;-6.298;2022-12-18T13:49:37;99559.55;;;9.57;91.52
61488;BME280;47351;53.326;-6.298;2022-12-18T13:52:28;99556.64;;;9.63;91.44
61488;BME280;47351;53.326;-6.298;2022-12-18T13:55:23;99550.34;;;9.67;90.97
61488;BME280;47351;53.326;-6.298;2022-12-18T13:58:14;99538.74;;;9.67;90.65
61488;BME280;47351;53.326;-6.298;2022-12-18T14:01:10;99541.16;;;9.66;90.69
61488;BME280;47351;53.326;-6.298;2022-12-18T14:04:10;99539.80;;;9.65;90.85
61488;BME280;47351;53.326;-6.298;2022-12-18T14:07:03;99526.77;;;9.67;91.12
61488;BME280;47351;53.326;-6.298;2022-12-18T14:09:56;99519.33;;;9.65;91.00
61488;BME280;47351;53.326;-6.298;2022-12-18T14:13:10;99525.73;;;9.67;91.42
61488;BME280;47351;53.326;-6.298;2022-12-18T14:16:05;99513.77;;;9.70;91.58
61488;BME280;47351;53.326;-6.298;2022-12-18T14:18:56;99509.20;;;9.71;91.51
61488;BME280;47351;53.326;-6.298;2022-12-18T14:22:03;99509.27;;;9.67;91.33
61488;BME280;47351;53.326;-6.298;2022-12-18T14:25:10;99517.55;;;9.65;91.30
61488;BME280;47351;53.326;-6.298;2022-12-18T14:28:07;99509.87;;;9.61;91.46
61488;BME280;47351;53.326;-6.298;2022-12-18T14:31:02;99508.42;;;9.55;91.47
61488;BME280;47351;53.326;-6.298;2022-12-18T14:33:55;99508.94;;;9.49;91.76
61488;BME280;47351;53.326;-6.298;2022-12-18T14:36:52;99505.58;;;9.49;92.38
61488;BME280;47351;53.326;-6.298;2022-12-18T14:39:55;99490.45;;;9.49;92.60
61488;BME280;47351;53.326;-6.298;2022-12-18T14:42:45;99470.44;;;9.49;92.79
61488;BME280;47351;53.326;-6.298;2022-12-18T14:45:37;99470.67;;;9.49;92.70
61488;BME280;47351;53.326;-6.298;2022-12-18T14:48:37;99470.61;;;9.45;92.55
61488;BME280;47351;53.326;-6.298;2022-12-18T14:51:29;99471.83;;;9.41;92.60
61488;BME280;47351;53.326;-6.298;2022-12-18T14:54:22;99466.44;;;9.36;92.75
61488;BME280;47351;53.326;-6.298;2022-12-18T14:57:17;99465.44;;;9.33;92.74
61488;BME280;47351;53.326;-6.298;2022-12-18T15:00:14;99460.38;;;9.27;92.99
61488;BME280;47351;53.326;-6.298;2022-12-18T15:03:05;99453.64;;;9.24;93.50
61488;BME280;47351;53.326;-6.298;2022-12-18T15:05:58;99449.39;;;9.24;93.89
61488;BME280;47351;53.326;-6.298;2022-12-18T15:09:05;99442.34;;;9.22;93.85
61488;BME280;47351;53.326;-6.298;2022-12-18T15:11:56;99436.45;;;9.20;94.32
61488;BME280;47351;53.326;-6.298;2022-12-18T15:14:47;99432.67;;;9.21;94.60
61488;BME280;47351;53.326;-6.298;2022-12-18T15:17:39;99440.72;;;9.20;94.49